createdAt,value
2019-01-29T00:02:12.299Z,9.40
2019-01-29T00:04:39.109Z,6.37
2019-01-29T00:07:05.803Z,9.60
2019-01-29T00:09:32.507Z,9.73
2019-01-29T00:11:59.203Z,7.58
2019-01-29T00:14:25.910Z,10.05
2019-01-29T00:16:52.610Z,6.85
2019-01-29T00:19:19.414Z,6.70
2019-01-29T00:21:46.115Z,6.67
2019-01-29T00:24:12.823Z,6.08
2019-01-29T00:26:39.534Z,6.97
2019-01-29T00:29:06.351Z,6.85
2019-01-29T00:31:33.168Z,5.65
2019-01-29T00:33:59.859Z,6.70
2019-01-29T00:36:26.579Z,7.62
2019-01-29T00:38:53.299Z,5.42
2019-01-29T00:41:20.000Z,7.62
2019-01-29T00:43:46.702Z,5.12
2019-01-29T00:46:13.398Z,9.55
2019-01-29T00:48:40.116Z,5.83
2019-01-29T00:51:06.935Z,6.60
2019-01-29T00:53:33.740Z,9.28
2019-01-29T00:56:00.443Z,11.70
2019-01-29T00:58:27.584Z,7.42
2019-01-29T01:00:54.490Z,6.05
2019-01-29T01:03:21.208Z,10.60
2019-01-29T01:05:48.099Z,6.05
2019-01-29T01:08:14.900Z,8.03
2019-01-29T01:10:41.595Z,9.18
2019-01-29T01:13:08.495Z,8.10
2019-01-29T01:15:35.301Z,7.30
2019-01-29T01:18:02.133Z,9.65
2019-01-29T01:20:28.851Z,6.95
2019-01-29T01:22:55.661Z,9.40
2019-01-29T01:25:22.459Z,11.00
2019-01-29T01:27:49.182Z,5.15
2019-01-29T01:30:18.001Z,10.90
2019-01-29T01:32:45.379Z,8.00
2019-01-29T01:35:12.295Z,6.47
2019-01-29T01:37:39.087Z,7.40
2019-01-29T01:40:09.875Z,6.47
2019-01-29T01:42:36.575Z,7.85
2019-01-29T01:45:05.279Z,7.45
2019-01-29T01:47:32.079Z,9.50
2019-01-29T01:49:58.890Z,9.20
2019-01-29T01:52:25.595Z,7.47
2019-01-29T01:54:52.405Z,8.95
2019-01-29T01:57:19.098Z,5.80
2019-01-29T01:59:45.807Z,8.48
2019-01-29T02:02:12.504Z,8.55
2019-01-29T02:04:39.207Z,6.17
2019-01-29T02:07:07.238Z,7.15
2019-01-29T02:09:34.339Z,9.13
2019-01-29T02:12:01.146Z,7.87
2019-01-29T02:14:27.847Z,4.78
2019-01-29T02:16:54.563Z,6.62
2019-01-29T02:19:21.379Z,6.40
2019-01-29T02:21:48.076Z,9.35
2019-01-29T02:24:14.787Z,6.35
2019-01-29T02:26:41.687Z,4.72
2019-01-29T02:29:08.390Z,8.93
2019-01-29T02:31:35.229Z,7.80
2019-01-29T02:34:02.092Z,7.55
2019-01-29T02:36:28.808Z,7.87
2019-01-29T02:38:55.615Z,5.30
2019-01-29T02:41:22.323Z,6.92
2019-01-29T02:43:49.023Z,9.28
2019-01-29T02:46:15.724Z,7.55
2019-01-29T02:48:42.532Z,8.45
2019-01-29T02:51:09.418Z,10.30
2019-01-29T02:53:36.129Z,8.35
2019-01-29T02:56:03.464Z,5.87
2019-01-29T02:58:30.170Z,10.25
2019-01-29T03:00:56.887Z,12.50
2019-01-29T03:03:23.603Z,14.78
2019-01-29T03:05:50.403Z,11.95
2019-01-29T03:08:17.303Z,15.38
2019-01-29T03:10:44.107Z,19.45
2019-01-29T03:13:10.811Z,18.73
2019-01-29T03:15:37.614Z,14.63
2019-01-29T03:18:05.223Z,17.90
2019-01-29T03:20:32.051Z,15.30
2019-01-29T03:22:58.763Z,20.75
2019-01-29T03:25:25.666Z,24.07
2019-01-29T03:27:52.382Z,20.17
2019-01-29T03:30:20.478Z,27.65
2019-01-29T03:32:47.447Z,24.82
2019-01-29T03:35:14.598Z,26.52
2019-01-29T03:37:41.409Z,24.50
2019-01-29T03:40:10.895Z,24.55
2019-01-29T03:42:37.806Z,23.27
2019-01-29T03:45:06.440Z,23.73
2019-01-29T03:47:33.251Z,24.00
2019-01-29T03:50:00.052Z,25.82
2019-01-29T03:52:26.753Z,29.67
2019-01-29T03:54:53.459Z,26.80
2019-01-29T03:57:20.159Z,30.05
2019-01-29T03:59:46.864Z,28.32
2019-01-29T04:02:13.669Z,29.48
2019-01-29T04:04:40.371Z,37.30
2019-01-29T04:07:07.178Z,30.48
2019-01-29T04:09:33.975Z,37.53
2019-01-29T04:12:00.679Z,35.33
2019-01-29T04:14:27.471Z,36.60
2019-01-29T04:16:54.224Z,33.23
2019-01-29T04:19:21.026Z,29.10
2019-01-29T04:21:47.831Z,41.15
2019-01-29T04:24:14.538Z,28.35
2019-01-29T04:26:41.239Z,31.93
2019-01-29T04:29:07.934Z,33.15
2019-01-29T04:31:34.627Z,38.13
2019-01-29T04:34:01.335Z,36.33
2019-01-29T04:36:28.032Z,27.42
2019-01-29T04:38:54.735Z,26.55
2019-01-29T04:41:21.463Z,25.70
2019-01-29T04:43:48.171Z,36.17
2019-01-29T04:46:15.216Z,25.27
2019-01-29T04:48:42.028Z,28.05
2019-01-29T04:51:08.840Z,30.20
2019-01-29T04:53:35.549Z,26.68
2019-01-29T04:56:02.351Z,28.90
2019-01-29T04:58:29.078Z,28.15
2019-01-29T05:00:55.763Z,30.90
2019-01-29T05:03:22.481Z,26.40
2019-01-29T05:05:49.187Z,29.15
2019-01-29T05:08:15.883Z,30.27
2019-01-29T05:10:42.685Z,25.50
2019-01-29T05:13:09.492Z,28.87
2019-01-29T05:15:36.191Z,26.15
2019-01-29T05:18:03.131Z,26.17
2019-01-29T05:20:29.943Z,30.30
2019-01-29T05:22:56.878Z,27.62
2019-01-29T05:25:23.596Z,27.15
2019-01-29T05:27:50.295Z,24.32
2019-01-29T05:30:21.322Z,26.10
2019-01-29T05:32:48.287Z,26.90
2019-01-29T05:35:15.388Z,25.08
2019-01-29T05:37:42.192Z,32.70
2019-01-29T05:40:11.852Z,27.95
2019-01-29T05:42:38.953Z,29.55
2019-01-29T05:45:07.177Z,32.17
2019-01-29T05:47:33.993Z,29.00
2019-01-29T05:50:00.727Z,29.57
2019-01-29T05:52:27.517Z,26.90
2019-01-29T05:54:54.253Z,28.65
2019-01-29T05:57:20.952Z,23.65
2019-01-29T05:59:47.655Z,26.42
2019-01-29T06:02:14.551Z,22.32
2019-01-29T06:04:41.255Z,29.52
2019-01-29T06:07:07.956Z,30.25
2019-01-29T06:09:34.676Z,34.03
2019-01-29T06:12:01.380Z,28.07
2019-01-29T06:14:28.084Z,26.80
2019-01-29T06:16:55.159Z,26.00
2019-01-29T06:19:21.878Z,27.48
2019-01-29T06:21:48.595Z,28.00
2019-01-29T06:24:15.310Z,28.92
2019-01-29T06:26:42.003Z,29.35
2019-01-29T06:29:08.800Z,28.57
2019-01-29T06:31:35.507Z,29.87
2019-01-29T06:34:02.227Z,26.60
2019-01-29T06:36:28.935Z,22.67
2019-01-29T06:38:55.665Z,27.62
2019-01-29T06:41:22.355Z,28.75
2019-01-29T06:43:49.062Z,25.32
2019-01-29T06:46:15.867Z,25.30
2019-01-29T06:48:42.673Z,30.92
2019-01-29T06:51:09.482Z,28.87
2019-01-29T06:53:36.187Z,24.80
2019-01-29T06:56:03.103Z,27.20
2019-01-29T06:58:30.255Z,25.10
2019-01-29T07:00:56.963Z,33.50
2019-01-29T07:03:23.663Z,25.52
2019-01-29T07:05:50.354Z,22.15
2019-01-29T07:08:17.169Z,24.40
2019-01-29T07:10:44.285Z,26.23
2019-01-29T07:13:11.366Z,22.95
2019-01-29T07:16:09.743Z,28.23
2019-01-29T07:18:43.800Z,27.65
2019-01-29T07:21:10.510Z,21.17
2019-01-29T07:23:37.352Z,22.10
2019-01-29T07:26:04.311Z,23.18
2019-01-29T07:28:31.150Z,32.10
2019-01-29T07:30:58.072Z,24.30
2019-01-29T07:33:24.775Z,30.08
2019-01-29T07:35:51.578Z,35.20
2019-01-29T07:38:18.318Z,23.77
2019-01-29T07:40:45.015Z,30.60
2019-01-29T07:43:11.727Z,31.45
2019-01-29T07:45:38.537Z,22.00
2019-01-29T07:48:05.343Z,28.67
2019-01-29T07:50:32.247Z,26.57
2019-01-29T07:52:59.055Z,33.42
2019-01-29T07:55:26.143Z,28.23
2019-01-29T07:57:52.851Z,26.07
2019-01-29T08:00:19.555Z,29.50
2019-01-29T08:02:46.470Z,25.30
2019-01-29T08:05:13.584Z,26.68
2019-01-29T08:07:40.395Z,25.57
2019-01-29T08:10:08.175Z,26.40
2019-01-29T08:12:34.895Z,27.00
2019-01-29T08:15:01.828Z,25.55
2019-01-29T08:17:28.742Z,20.50
2019-01-29T08:19:55.439Z,24.43
2019-01-29T08:22:22.167Z,23.12
2019-01-29T08:24:53.253Z,26.80
2019-01-29T08:27:17.846Z,23.70
2019-01-29T08:29:44.559Z,20.50
2019-01-29T08:32:11.268Z,25.40
2019-01-29T08:34:38.067Z,23.25
2019-01-29T08:37:04.779Z,23.30
2019-01-29T08:39:31.494Z,22.22
2019-01-29T08:41:58.207Z,22.13
2019-01-29T08:44:25.269Z,19.75
2019-01-29T08:46:51.964Z,22.22
2019-01-29T08:49:18.671Z,19.52
2019-01-29T08:51:45.383Z,19.65
2019-01-29T08:54:12.086Z,20.00
2019-01-29T08:56:39.007Z,18.00
2019-01-29T08:59:05.722Z,21.42
2019-01-29T09:01:32.424Z,19.75
2019-01-29T09:03:59.128Z,21.27
2019-01-29T09:06:25.924Z,19.98
2019-01-29T09:08:52.735Z,23.20
2019-01-29T09:11:19.654Z,25.20
2019-01-29T09:13:46.359Z,29.10
2019-01-29T09:16:13.075Z,27.32
2019-01-29T09:18:39.876Z,24.57
2019-01-29T09:21:06.585Z,22.40
2019-01-29T09:23:33.291Z,23.30
2019-01-29T09:25:59.995Z,22.15
2019-01-29T09:28:26.811Z,19.77
2019-01-29T09:30:53.557Z,23.92
2019-01-29T09:33:20.358Z,20.30
2019-01-29T09:35:47.067Z,19.57
2019-01-29T09:38:13.771Z,21.37
2019-01-29T09:40:40.486Z,19.07
2019-01-29T09:43:07.298Z,18.98
2019-01-29T09:45:34.224Z,17.90
2019-01-29T09:48:01.033Z,16.62
2019-01-29T09:50:27.856Z,20.10
2019-01-29T09:52:54.693Z,18.65
2019-01-29T09:55:28.815Z,18.70
2019-01-29T09:57:50.547Z,19.15
2019-01-29T10:00:21.669Z,17.10
2019-01-29T10:02:48.975Z,20.40
2019-01-29T10:05:15.881Z,20.37
2019-01-29T10:07:42.987Z,16.62
2019-01-29T10:10:10.367Z,19.25
2019-01-29T10:12:37.548Z,15.28
2019-01-29T10:15:05.641Z,15.98
2019-01-29T10:17:32.956Z,14.53
2019-01-29T10:20:02.807Z,17.30
2019-01-29T10:22:28.287Z,15.03
2019-01-29T10:24:54.996Z,18.32
2019-01-29T10:27:21.707Z,15.45
2019-01-29T10:29:48.420Z,15.25
2019-01-29T10:32:15.115Z,14.45
2019-01-29T10:34:41.834Z,12.47
2019-01-29T10:37:08.647Z,13.43
2019-01-29T10:39:35.380Z,13.83
2019-01-29T10:42:02.468Z,14.35
2019-01-29T10:44:29.183Z,13.10
2019-01-29T10:46:55.899Z,14.73
2019-01-29T10:49:22.614Z,13.55
2019-01-29T10:51:49.527Z,16.60
2019-01-29T10:54:16.272Z,13.93
2019-01-29T10:56:42.979Z,12.90
2019-01-29T10:59:09.700Z,14.00
2019-01-29T11:01:36.414Z,13.35
2019-01-29T11:04:03.579Z,13.08
2019-01-29T11:06:30.395Z,10.15
2019-01-29T11:08:57.575Z,16.82
2019-01-29T11:11:24.295Z,16.00
2019-01-29T11:13:51.009Z,17.65
2019-01-29T11:16:17.728Z,13.58
2019-01-29T11:18:44.846Z,10.38
2019-01-29T11:21:11.996Z,13.58
2019-01-29T11:23:38.718Z,14.65
2019-01-29T11:26:05.902Z,12.90
2019-01-29T11:28:32.647Z,12.55
2019-01-29T11:30:59.979Z,11.55
2019-01-29T11:33:26.683Z,11.38
2019-01-29T11:35:53.419Z,9.88
2019-01-29T11:38:20.150Z,9.95
2019-01-29T11:40:46.967Z,12.73
2019-01-29T11:43:13.671Z,8.63
2019-01-29T11:45:47.388Z,13.40
2019-01-29T11:48:14.289Z,10.68
2019-01-29T11:50:41.195Z,10.53
2019-01-29T11:53:08.151Z,9.23
2019-01-29T11:55:35.059Z,9.40
2019-01-29T11:58:01.863Z,9.80
2019-01-29T12:00:35.923Z,13.08
2019-01-29T12:03:03.368Z,9.68
2019-01-29T12:05:30.198Z,10.25
2019-01-29T12:07:57.007Z,8.18
2019-01-29T12:10:24.131Z,8.05
2019-01-29T12:12:51.048Z,10.05
2019-01-29T12:15:18.098Z,9.60
2019-01-29T12:17:44.917Z,9.85
2019-01-29T12:20:12.423Z,9.93
2019-01-29T12:22:39.356Z,9.68
2019-01-29T12:25:06.602Z,9.43
2019-01-29T12:27:33.315Z,10.30
2019-01-29T12:30:00.274Z,9.90
2019-01-29T12:32:27.070Z,7.15
2019-01-29T12:35:13.519Z,11.08
2019-01-29T12:37:40.220Z,9.68
2019-01-29T12:40:07.524Z,9.40
2019-01-29T12:42:34.260Z,8.63
2019-01-29T12:45:01.058Z,10.53
2019-01-29T12:47:27.954Z,11.12
2019-01-29T12:49:54.820Z,8.48
2019-01-29T12:52:28.086Z,10.60
2019-01-29T12:54:54.795Z,8.95
2019-01-29T12:57:21.512Z,9.10
2019-01-29T12:59:48.224Z,6.72
2019-01-29T13:02:15.028Z,10.20
2019-01-29T13:04:41.735Z,11.73
2019-01-29T13:07:08.543Z,9.20
2019-01-29T13:09:35.263Z,11.53
2019-01-29T13:12:01.955Z,9.30
2019-01-29T13:14:28.819Z,9.63
2019-01-29T13:16:55.630Z,9.23
2019-01-29T13:19:22.532Z,10.32
2019-01-29T13:21:49.223Z,9.10
2019-01-29T13:24:15.945Z,11.48
2019-01-29T13:26:42.659Z,9.57
2019-01-29T13:29:09.363Z,11.10
2019-01-29T13:31:36.079Z,11.77
2019-01-29T13:34:03.289Z,10.03
2019-01-29T13:36:30.044Z,9.90
2019-01-29T13:38:56.803Z,12.98
2019-01-29T13:41:23.512Z,9.67
2019-01-29T13:43:50.306Z,9.98
2019-01-29T13:46:17.739Z,8.83
2019-01-29T13:48:56.595Z,12.58
2019-01-29T13:51:23.432Z,8.50
2019-01-29T13:53:50.138Z,8.90
2019-01-29T13:56:16.848Z,9.85
2019-01-29T13:58:43.556Z,8.18
2019-01-29T14:01:10.280Z,11.93
2019-01-29T14:03:36.971Z,10.87
2019-01-29T14:06:04.014Z,7.83
2019-01-29T14:08:30.815Z,8.93
2019-01-29T14:10:57.789Z,9.20
2019-01-29T14:13:24.659Z,10.17
2019-01-29T14:15:53.917Z,10.83
2019-01-29T14:18:25.714Z,10.07
2019-01-29T14:21:12.063Z,12.10
2019-01-29T14:23:38.771Z,8.97
2019-01-29T14:26:05.591Z,10.67
2019-01-29T14:28:32.399Z,8.85
2019-01-29T14:30:59.202Z,6.60
2019-01-29T14:33:26.035Z,11.43
2019-01-29T14:35:52.838Z,12.28
2019-01-29T14:38:57.355Z,8.00
2019-01-29T14:41:24.059Z,9.35
2019-01-29T14:43:53.491Z,8.95
2019-01-29T14:46:20.407Z,7.50
2019-01-29T14:48:47.215Z,10.48
2019-01-29T14:51:14.287Z,6.90
2019-01-29T14:53:41.074Z,9.83
2019-01-29T14:56:07.984Z,9.78
2019-01-29T14:58:34.803Z,9.93
2019-01-29T15:01:01.898Z,10.60
2019-01-29T15:03:28.884Z,9.35
2019-01-29T15:05:55.688Z,12.00
2019-01-29T15:08:22.701Z,10.80
2019-01-29T15:10:49.491Z,9.08
2019-01-29T15:13:16.306Z,11.33
2019-01-29T15:15:48.527Z,8.70
2019-01-29T15:18:25.259Z,10.85
2019-01-29T15:20:52.066Z,9.83
2019-01-29T15:23:18.946Z,11.60
2019-01-29T15:25:45.739Z,7.97
2019-01-29T15:28:12.543Z,12.13
2019-01-29T15:30:39.751Z,12.23
2019-01-29T15:33:06.675Z,7.55
2019-01-29T15:35:33.477Z,7.62
2019-01-29T15:38:00.175Z,7.47
2019-01-29T15:40:26.879Z,11.73
2019-01-29T15:42:53.780Z,6.40
2019-01-29T15:45:20.692Z,8.28
2019-01-29T15:47:47.491Z,9.93
2019-01-29T15:50:17.287Z,7.70
2019-01-29T15:52:48.575Z,9.78
2019-01-29T15:55:13.950Z,9.60
2019-01-29T15:57:41.119Z,8.88
2019-01-29T16:00:15.959Z,9.90
2019-01-29T16:02:42.679Z,8.83
2019-01-29T16:05:12.368Z,10.28
2019-01-29T16:07:39.255Z,8.38
2019-01-29T16:10:08.517Z,10.55
2019-01-29T16:12:35.319Z,10.70
2019-01-29T16:15:02.672Z,9.48
2019-01-29T16:17:29.483Z,6.80
2019-01-29T16:19:56.363Z,11.12
2019-01-29T16:22:23.191Z,12.70
2019-01-29T16:24:49.975Z,9.38
2019-01-29T16:27:22.640Z,8.30
2019-01-29T16:29:45.307Z,9.55
2019-01-29T16:32:12.132Z,15.75
2019-01-29T16:34:38.851Z,20.48
2019-01-29T16:37:05.559Z,17.07
2019-01-29T16:39:32.280Z,19.92
2019-01-29T16:41:58.975Z,14.38
2019-01-29T16:44:25.687Z,13.50
2019-01-29T16:46:52.511Z,10.40
2019-01-29T16:49:19.231Z,9.45
2019-01-29T16:51:45.943Z,14.63
2019-01-29T16:54:12.642Z,11.03
2019-01-29T16:56:39.367Z,10.88
2019-01-29T16:59:06.170Z,9.70
2019-01-29T17:01:33.134Z,11.10
2019-01-29T17:03:59.947Z,9.28
2019-01-29T17:06:26.761Z,9.65
2019-01-29T17:08:53.475Z,8.38
2019-01-29T17:11:20.395Z,11.75
2019-01-29T17:13:47.103Z,9.30
2019-01-29T17:16:13.810Z,11.20
2019-01-29T17:18:40.628Z,10.38
2019-01-29T17:21:07.435Z,11.50
2019-01-29T17:23:34.571Z,12.85
2019-01-29T17:26:01.374Z,12.73
2019-01-29T17:28:28.083Z,13.98
2019-01-29T17:30:54.792Z,10.98
2019-01-29T17:33:22.000Z,13.45
2019-01-29T17:35:48.708Z,13.50
2019-01-29T17:38:15.615Z,10.85
2019-01-29T17:40:43.443Z,13.35
2019-01-29T17:43:10.367Z,11.38
2019-01-29T17:45:42.511Z,13.13
2019-01-29T17:48:09.777Z,11.20
2019-01-29T17:50:38.275Z,9.08
2019-01-29T17:53:05.206Z,9.10
2019-01-29T17:55:33.331Z,11.00
2019-01-29T17:58:00.135Z,9.50
2019-01-29T18:00:30.175Z,10.95
2019-01-29T18:02:57.366Z,14.38
2019-01-29T18:05:24.164Z,12.37
2019-01-29T18:07:50.890Z,10.53
2019-01-29T18:10:17.935Z,9.83
2019-01-29T18:12:45.152Z,9.63
2019-01-29T18:15:17.729Z,9.23
2019-01-29T18:17:44.711Z,10.70
2019-01-29T18:20:12.127Z,14.50
2019-01-29T18:22:38.924Z,12.23
2019-01-29T18:25:06.775Z,9.08
2019-01-29T18:27:33.483Z,8.90
2019-01-29T18:30:00.457Z,13.43
2019-01-29T18:32:27.335Z,11.15
2019-01-29T18:34:54.030Z,10.82
2019-01-29T18:37:20.738Z,13.10
2019-01-29T18:39:47.826Z,11.97
2019-01-29T18:42:15.407Z,12.68
2019-01-29T18:44:42.131Z,11.40
2019-01-29T18:47:08.835Z,12.45
2019-01-29T18:49:35.651Z,12.50
2019-01-29T18:52:02.355Z,13.75
2019-01-29T18:54:29.067Z,11.18
2019-01-29T18:56:55.766Z,12.63
2019-01-29T18:59:22.477Z,12.60
2019-01-29T19:01:49.177Z,11.80
2019-01-29T19:04:15.880Z,11.30
2019-01-29T19:06:42.765Z,13.18
2019-01-29T19:09:09.699Z,12.95
2019-01-29T19:11:36.403Z,11.78
2019-01-29T19:14:03.639Z,11.12
2019-01-29T19:16:30.459Z,14.10
2019-01-29T19:18:57.695Z,11.18
2019-01-29T19:21:24.491Z,13.72
2019-01-29T19:23:51.207Z,11.78
2019-01-29T19:26:17.936Z,11.25
2019-01-29T19:28:44.643Z,11.43
2019-01-29T19:31:11.339Z,11.28
2019-01-29T19:33:38.051Z,13.55
2019-01-29T19:36:04.755Z,10.82
2019-01-29T19:38:31.463Z,9.58
2019-01-29T19:40:58.187Z,9.38
2019-01-29T19:43:24.894Z,11.83
2019-01-29T19:45:51.699Z,15.48
2019-01-29T19:48:18.415Z,12.18
2019-01-29T19:50:45.135Z,10.25
2019-01-29T19:53:11.943Z,12.18
2019-01-29T19:55:38.648Z,12.65
2019-01-29T19:58:09.259Z,9.58
2019-01-29T20:00:37.147Z,10.63
2019-01-29T20:03:05.020Z,11.85
2019-01-29T20:05:31.956Z,10.88
2019-01-29T20:07:58.755Z,13.15
2019-01-29T20:10:25.679Z,12.98
2019-01-29T20:12:52.487Z,11.05
2019-01-29T20:15:19.414Z,14.10
2019-01-29T20:17:47.411Z,12.73
2019-01-29T20:20:17.503Z,11.63
2019-01-29T20:22:44.316Z,11.15
2019-01-29T20:25:11.219Z,11.75
2019-01-29T20:27:38.827Z,12.03
2019-01-29T20:30:14.547Z,11.25
2019-01-29T20:32:41.252Z,12.43
2019-01-29T20:35:08.338Z,12.30
2019-01-29T20:37:35.059Z,13.08
2019-01-29T20:40:01.891Z,9.03
2019-01-29T20:42:28.615Z,9.75
2019-01-29T20:44:55.330Z,11.83
2019-01-29T20:47:22.031Z,10.53
2019-01-29T20:49:48.751Z,12.18
2019-01-29T20:52:15.451Z,10.45
2019-01-29T20:54:42.170Z,13.20
2019-01-29T20:57:08.868Z,10.68
2019-01-29T20:59:35.574Z,12.55
2019-01-29T21:02:02.295Z,11.65
2019-01-29T21:04:28.999Z,11.25
2019-01-29T21:06:55.731Z,10.48
2019-01-29T21:09:22.462Z,11.75
2019-01-29T21:11:49.156Z,11.95
2019-01-29T21:14:15.875Z,12.58
2019-01-29T21:16:42.626Z,11.48
2019-01-29T21:19:09.357Z,11.83
2019-01-29T21:21:36.054Z,10.28
2019-01-29T21:24:02.960Z,10.78
2019-01-29T21:26:29.652Z,10.43
2019-01-29T21:29:02.819Z,9.05
2019-01-29T21:31:25.261Z,8.20
2019-01-29T21:33:51.975Z,10.08
2019-01-29T21:36:19.125Z,10.58
2019-01-29T21:38:45.835Z,9.10
2019-01-29T21:41:12.568Z,10.20
2019-01-29T21:43:39.295Z,10.40
2019-01-29T21:46:06.003Z,10.30
2019-01-29T21:48:33.143Z,9.70
2019-01-29T21:50:59.859Z,9.00
2019-01-29T21:53:26.566Z,10.58
2019-01-29T21:55:53.279Z,9.93
2019-01-29T21:58:20.082Z,10.70
2019-01-29T22:00:47.016Z,9.23
2019-01-29T22:03:14.751Z,11.10
2019-01-29T22:05:41.667Z,12.18
2019-01-29T22:08:09.647Z,11.03
2019-01-29T22:10:36.484Z,12.07
2019-01-29T22:13:04.799Z,14.28
2019-01-29T22:15:31.535Z,11.20
2019-01-29T22:17:58.439Z,11.78
2019-01-29T22:20:25.406Z,14.60
2019-01-29T22:22:53.619Z,12.65
2019-01-29T22:25:20.447Z,11.38
2019-01-29T22:27:47.238Z,14.23
2019-01-29T22:30:19.660Z,12.45
2019-01-29T22:32:46.407Z,12.58
2019-01-29T22:35:13.206Z,14.30
2019-01-29T22:37:40.004Z,12.05
2019-01-29T22:40:10.694Z,13.80
2019-01-29T22:42:37.799Z,10.93
2019-01-29T22:45:07.343Z,12.07
2019-01-29T22:47:34.175Z,13.18
2019-01-29T22:50:00.891Z,9.75
2019-01-29T22:52:27.687Z,14.45
2019-01-29T22:54:54.440Z,13.35
2019-01-29T22:57:21.144Z,14.73
2019-01-29T22:59:47.856Z,13.08
2019-01-29T23:02:14.556Z,15.25
2019-01-29T23:04:45.327Z,11.68
2019-01-29T23:07:14.982Z,11.38
2019-01-29T23:09:41.791Z,11.03
2019-01-29T23:12:08.707Z,16.32
2019-01-29T23:14:35.500Z,12.37
2019-01-29T23:17:02.410Z,13.72
2019-01-29T23:19:29.351Z,13.88
2019-01-29T23:21:56.055Z,10.60
2019-01-29T23:24:22.758Z,10.72
2019-01-29T23:26:49.559Z,16.25
2019-01-29T23:29:17.201Z,13.83
2019-01-29T23:31:44.269Z,13.95
2019-01-29T23:34:11.074Z,12.03
2019-01-29T23:36:37.775Z,12.98
2019-01-29T23:39:06.948Z,11.85
2019-01-29T23:41:33.654Z,11.60
2019-01-29T23:44:00.374Z,11.85
2019-01-29T23:46:27.583Z,13.00
2019-01-29T23:48:54.635Z,10.72
2019-01-29T23:51:21.339Z,14.90
2019-01-29T23:53:48.042Z,11.45
2019-01-29T23:56:14.763Z,14.40
2019-01-29T23:58:41.464Z,13.85
